Time;durP1;ratioP1;P1;durP2;ratioP2;P2;SDS_P1;SDS_P2;PMS_P1;PMS_P2;Temp;Humidity;BMP_temperature;BMP_pressure;BME280_temperature;BME280_humidity;BME280_pressure;Samples;Min_cycle;Max_cycle;Signal;HPM_P1;HPM_P2
2022/12/09 00:00:17;;;;;;;90.75;48.88;;;;;;;;;;6245135;28;20045;-74
2022/12/09 00:03:20;;;;;;;149.15;71.65;;;;;;;;;;6243553;28;20046;-73
2022/12/09 00:06:24;;;;;;;108.32;55.45;;;;;;;;;;6244917;28;20045;-73
2022/12/09 00:09:26;;;;;;;163.20;80.80;;;;;;;;;;6243286;28;20061;-74
2022/12/09 00:12:27;;;;;;;94.35;52.70;;;;;;;;;;6244106;28;20049;-71
2022/12/09 00:15:29;;;;;;;160.02;77.28;;;;;;;;;;6244852;28;20045;-73
2022/12/09 00:18:32;;;;;;;113.93;64.00;;;;;;;;;;6245699;28;20068;-72
2022/12/09 00:21:34;;;;;;;63.95;40.03;;;;;;;;;;6244906;28;20257;-72
2022/12/09 00:24:36;;;;;;;48.15;32.33;;;;;;;;;;6245271;28;20072;-72
2022/12/09 00:27:38;;;;;;;51.47;32.65;;;;;;;;;;6246319;28;20064;-72
2022/12/09 00:30:39;;;;;;;56.95;35.08;;;;;;;;;;6246631;28;20103;-71
2022/12/09 00:33:43;;;;;;;50.40;33.80;;;;;;;;;;6243796;28;20057;-71
2022/12/09 00:36:44;;;;;;;53.22;33.38;;;;;;;;;;6244805;28;20126;-71
2022/12/09 00:39:46;;;;;;;51.10;32.90;;;;;;;;;;6244073;28;20357;-71
2022/12/09 00:42:48;;;;;;;51.22;33.40;;;;;;;;;;6244473;28;20053;-71
2022/12/09 00:45:49;;;;;;;51.90;33.08;;;;;;;;;;6244280;28;20398;-71
2022/12/09 00:48:52;;;;;;;50.35;32.70;;;;;;;;;;6243742;28;20061;-71
2022/12/09 00:51:54;;;;;;;50.20;32.33;;;;;;;;;;6247276;28;20091;-71
2022/12/09 00:54:56;;;;;;;54.00;33.05;;;;;;;;;;6245118;28;20106;-71
2022/12/09 00:57:57;;;;;;;49.45;30.38;;;;;;;;;;6242916;28;20225;-71
2022/12/09 01:00:59;;;;;;;48.42;31.85;;;;;;;;;;6244490;28;20119;-71
2022/12/09 01:04:02;;;;;;;55.05;33.75;;;;;;;;;;6242758;28;20099;-71
2022/12/09 01:07:04;;;;;;;47.78;30.42;;;;;;;;;;6243741;28;20057;-71
2022/12/09 01:10:08;;;;;;;51.72;32.35;;;;;;;;;;6244553;28;20041;-71
2022/12/09 01:13:10;;;;;;;55.22;34.05;;;;;;;;;;6244236;28;20060;-71
2022/12/09 01:16:16;;;;;;;51.90;31.95;;;;;;;;;;6243916;28;20324;-71
2022/12/09 01:19:19;;;;;;;52.35;32.50;;;;;;;;;;6245032;28;20053;-71
2022/12/09 01:22:21;;;;;;;52.83;33.60;;;;;;;;;;6240571;28;20165;-71
2022/12/09 01:25:22;;;;;;;53.40;32.58;;;;;;;;;;6244234;28;20057;-71
2022/12/09 01:28:24;;;;;;;55.55;32.97;;;;;;;;;;6247447;28;20261;-72
2022/12/09 01:31:26;;;;;;;48.45;30.88;;;;;;;;;;6245201;28;20053;-71
2022/12/09 01:34:29;;;;;;;48.50;31.40;;;;;;;;;;6245836;28;20054;-71
2022/12/09 01:37:32;;;;;;;49.65;30.75;;;;;;;;;;6243017;28;20049;-72
2022/12/09 01:40:33;;;;;;;46.53;31.17;;;;;;;;;;6245512;28;20295;-71
2022/12/09 01:43:35;;;;;;;47.08;29.58;;;;;;;;;;6240560;28;20072;-71
2022/12/09 01:46:37;;;;;;;54.85;30.38;;;;;;;;;;6248279;28;20046;-72
2022/12/09 01:49:42;;;;;;;51.78;30.98;;;;;;;;;;6248259;28;20099;-71
2022/12/09 01:52:44;;;;;;;55.60;32.85;;;;;;;;;;6245920;28;20151;-71
2022/12/09 01:55:46;;;;;;;52.92;32.88;;;;;;;;;;6248956;28;21472;-72
2022/12/09 01:58:48;;;;;;;50.03;31.83;;;;;;;;;;6246695;28;20065;-71
2022/12/09 02:01:51;;;;;;;52.88;32.60;;;;;;;;;;6248594;28;20049;-72
2022/12/09 02:04:55;;;;;;;55.50;33.10;;;;;;;;;;6248398;28;20057;-71
2022/12/09 02:07:56;;;;;;;54.35;33.03;;;;;;;;;;6247537;28;20079;-72
2022/12/09 02:11:06;;;;;;;56.05;32.35;;;;;;;;;;6249649;28;20053;-71
2022/12/09 02:14:12;;;;;;;52.20;31.75;;;;;;;;;;6250840;28;20052;-71
2022/12/09 02:17:23;;;;;;;50.40;31.63;;;;;;;;;;6249044;28;20061;-72
2022/12/09 02:20:29;;;;;;;50.13;31.40;;;;;;;;;;6248814;28;20053;-72
2022/12/09 02:23:37;;;;;;;49.47;30.27;;;;;;;;;;6249404;28;20061;-71
2022/12/09 02:26:40;;;;;;;50.75;31.85;;;;;;;;;;6249392;28;20069;-71
2022/12/09 02:29:54;;;;;;;52.42;31.80;;;;;;;;;;6248175;28;20100;-71
2022/12/09 02:33:08;;;;;;;50.72;30.48;;;;;;;;;;6249892;28;20053;-72
2022/12/09 02:36:12;;;;;;;;;;;;;;;;;;6247373;28;20337;-72
2022/12/09 02:39:15;;;;;;;46.50;28.02;;;;;;;;;;6240076;28;19921;-73
2022/12/09 02:42:19;;;;;;;48.67;28.77;;;;;;;;;;6248348;28;20056;-73
2022/12/09 02:45:21;;;;;;;49.83;29.15;;;;;;;;;;6246397;28;20072;-74
2022/12/09 02:48:25;;;;;;;47.42;29.45;;;;;;;;;;6248422;28;20069;-73
2022/12/09 02:51:31;;;;;;;52.35;29.90;;;;;;;;;;6246867;28;20060;-73
2022/12/09 02:54:33;;;;;;;43.13;27.65;;;;;;;;;;6245957;28;20097;-73
2022/12/09 02:57:36;;;;;;;43.67;29.45;;;;;;;;;;6245159;28;20104;-73
2022/12/09 03:00:38;;;;;;;46.80;28.80;;;;;;;;;;6246845;28;20057;-73
2022/12/09 03:03:40;;;;;;;47.05;29.08;;;;;;;;;;6246117;28;20041;-73
2022/12/09 03:06:48;;;;;;;51.58;29.88;;;;;;;;;;6225320;28;20371;-73
2022/12/09 03:09:54;;;;;;;53.50;30.45;;;;;;;;;;6249053;28;20116;-73
2022/12/09 03:12:59;;;;;;;46.30;28.95;;;;;;;;;;6247655;28;20064;-73
2022/12/09 03:16:11;;;;;;;49.10;30.05;;;;;;;;;;6243362;28;20099;-73
2022/12/09 03:19:16;;;;;;;50.67;30.63;;;;;;;;;;6246385;28;20056;-73
2022/12/09 03:22:21;;;;;;;46.92;29.00;;;;;;;;;;6244721;28;20343;-74
2022/12/09 03:25:26;;;;;;;48.13;29.58;;;;;;;;;;6247148;28;20056;-73
2022/12/09 03:28:30;;;;;;;49.63;30.80;;;;;;;;;;6245343;28;20060;-72
2022/12/09 03:31:32;;;;;;;49.90;28.33;;;;;;;;;;6244446;28;20046;-72
2022/12/09 03:34:36;;;;;;;51.10;30.08;;;;;;;;;;6243595;28;20053;-72
2022/12/09 03:37:39;;;;;;;;;;;;;;;;;;6243360;28;20264;-71
2022/12/09 03:40:42;;;;;;;48.53;28.55;;;;;;;;;;6246816;28;19932;-72
2022/12/09 03:43:50;;;;;;;45.35;29.48;;;;;;;;;;6246239;28;20054;-72
2022/12/09 03:46:52;;;;;;;51.55;29.17;;;;;;;;;;6246269;28;20053;-72
2022/12/09 03:49:54;;;;;;;50.28;30.70;;;;;;;;;;6244130;28;20061;-71
2022/12/09 03:53:03;;;;;;;46.28;29.85;;;;;;;;;;6244929;28;20072;-72
2022/12/09 03:56:10;;;;;;;46.83;29.73;;;;;;;;;;6244178;28;20045;-73
2022/12/09 03:59:13;;;;;;;49.95;29.95;;;;;;;;;;6248417;28;20269;-72
2022/12/09 04:02:15;;;;;;;49.80;29.25;;;;;;;;;;6245457;28;20402;-71
2022/12/09 04:05:17;;;;;;;49.55;29.50;;;;;;;;;;6246788;28;20049;-71
2022/12/09 04:08:20;;;;;;;52.72;29.08;;;;;;;;;;6243308;28;20061;-72
2022/12/09 04:11:21;;;;;;;51.33;30.23;;;;;;;;;;6247372;28;20064;-71
2022/12/09 04:14:23;;;;;;;48.92;29.08;;;;;;;;;;6244856;28;20057;-71
2022/12/09 04:17:25;;;;;;;51.42;30.75;;;;;;;;;;6249411;28;20099;-71
2022/12/09 04:20:26;;;;;;;52.10;29.98;;;;;;;;;;6248106;28;20103;-71
2022/12/09 04:23:29;;;;;;;48.70;28.58;;;;;;;;;;6244031;28;20061;-71
2022/12/09 04:26:31;;;;;;;53.55;29.83;;;;;;;;;;6245431;28;20135;-72
2022/12/09 04:29:33;;;;;;;44.37;28.23;;;;;;;;;;6244446;28;20046;-72
2022/12/09 04:32:35;;;;;;;50.28;29.75;;;;;;;;;;6249066;28;20072;-72
2022/12/09 04:35:36;;;;;;;50.45;27.50;;;;;;;;;;6244278;28;21121;-72
2022/12/09 04:38:40;;;;;;;48.60;28.70;;;;;;;;;;6245653;28;20996;-71
2022/12/09 04:41:41;;;;;;;46.17;27.57;;;;;;;;;;6242793;28;20337;-71
2022/12/09 04:44:43;;;;;;;45.45;25.83;;;;;;;;;;6246541;28;20061;-72
2022/12/09 04:47:45;;;;;;;51.20;25.77;;;;;;;;;;6242943;28;20061;-72
2022/12/09 04:50:46;;;;;;;43.83;26.08;;;;;;;;;;6246078;28;20057;-71
2022/12/09 04:53:49;;;;;;;45.72;26.95;;;;;;;;;;6245771;28;20045;-71
2022/12/09 04:56:51;;;;;;;42.92;24.40;;;;;;;;;;6244192;28;20383;-71
2022/12/09 04:59:53;;;;;;;43.20;25.55;;;;;;;;;;6246472;28;20061;-71
2022/12/09 05:02:55;;;;;;;46.25;25.77;;;;;;;;;;6243038;28;20330;-71
2022/12/09 05:05:56;;;;;;;41.22;24.73;;;;;;;;;;6244991;28;20381;-71
2022/12/09 05:08:59;;;;;;;41.47;24.70;;;;;;;;;;6246745;28;20064;-71
2022/12/09 05:12:01;;;;;;;43.58;26.15;;;;;;;;;;6245207;28;20045;-70
2022/12/09 05:15:03;;;;;;;48.55;26.40;;;;;;;;;;6246444;28;20603;-71
2022/12/09 05:18:05;;;;;;;42.00;24.52;;;;;;;;;;6244653;28;20053;-71
2022/12/09 05:21:07;;;;;;;42.40;24.80;;;;;;;;;;6247070;28;20127;-71
2022/12/09 05:24:10;;;;;;;39.63;24.60;;;;;;;;;;6249828;28;20932;-71
2022/12/09 05:27:12;;;;;;;42.85;25.10;;;;;;;;;;6248210;28;20053;-71
2022/12/09 05:30:14;;;;;;;38.88;24.10;;;;;;;;;;6249167;28;20056;-71
2022/12/09 05:33:16;;;;;;;41.92;24.58;;;;;;;;;;6248570;28;20665;-71
2022/12/09 05:36:20;;;;;;;45.63;24.83;;;;;;;;;;6249899;28;20482;-71
2022/12/09 05:39:23;;;;;;;40.75;24.42;;;;;;;;;;6249912;28;20349;-71
2022/12/09 05:42:25;;;;;;;37.25;23.17;;;;;;;;;;6248718;28;20064;-71
2022/12/09 05:45:27;;;;;;;36.53;22.73;;;;;;;;;;6248830;28;20059;-72
2022/12/09 05:48:29;;;;;;;37.20;23.27;;;;;;;;;;6246542;28;20069;-71
2022/12/09 05:51:31;;;;;;;36.88;22.23;;;;;;;;;;6245201;28;20053;-71
2022/12/09 05:54:34;;;;;;;38.88;23.20;;;;;;;;;;6240347;28;20103;-70
2022/12/09 05:57:37;;;;;;;37.70;23.55;;;;;;;;;;6251749;28;20049;-71
2022/12/09 06:00:38;;;;;;;38.90;23.45;;;;;;;;;;6249939;28;20053;-71
2022/12/09 06:03:40;;;;;;;37.53;22.83;;;;;;;;;;6247449;28;20060;-71
2022/12/09 06:06:42;;;;;;;35.42;22.83;;;;;;;;;;6248634;28;20103;-71
2022/12/09 06:09:45;;;;;;;34.50;21.75;;;;;;;;;;6249494;28;20056;-71
2022/12/09 06:12:46;;;;;;;37.90;22.48;;;;;;;;;;6248113;28;20121;-71
2022/12/09 06:15:48;;;;;;;28.83;19.92;;;;;;;;;;6249645;28;20175;-71
2022/12/09 06:18:50;;;;;;;29.38;19.40;;;;;;;;;;6247800;28;20060;-71
2022/12/09 06:21:52;;;;;;;33.42;20.77;;;;;;;;;;6245334;28;20261;-71
2022/12/09 06:24:55;;;;;;;29.55;18.95;;;;;;;;;;6248889;28;20099;-71
2022/12/09 06:27:56;;;;;;;28.45;19.27;;;;;;;;;;6248166;28;20064;-71
2022/12/09 06:30:58;;;;;;;28.10;18.30;;;;;;;;;;6246744;28;20493;-71
2022/12/09 06:34:00;;;;;;;29.75;18.55;;;;;;;;;;6245462;28;20059;-70
2022/12/09 06:37:02;;;;;;;27.10;17.75;;;;;;;;;;6247714;28;20245;-71
2022/12/09 06:40:06;;;;;;;24.02;15.85;;;;;;;;;;6246935;28;20049;-71
2022/12/09 06:43:08;;;;;;;27.60;16.35;;;;;;;;;;6246656;28;20080;-71
2022/12/09 06:46:13;;;;;;;23.60;15.45;;;;;;;;;;6244533;28;20064;-71
2022/12/09 06:49:15;;;;;;;24.55;16.48;;;;;;;;;;6245411;28;20053;-71
2022/12/09 06:52:17;;;;;;;25.80;16.02;;;;;;;;;;6248993;28;20055;-71
2022/12/09 06:55:20;;;;;;;27.20;16.67;;;;;;;;;;6245311;28;20053;-71
2022/12/09 06:58:21;;;;;;;27.15;16.35;;;;;;;;;;6247007;28;20045;-71
2022/12/09 07:01:24;;;;;;;24.08;14.98;;;;;;;;;;6247709;28;20329;-71
2022/12/09 07:04:26;;;;;;;21.35;13.88;;;;;;;;;;6246000;28;20300;-71
2022/12/09 07:07:28;;;;;;;25.65;14.68;;;;;;;;;;6244086;28;20053;-70
2022/12/09 07:10:31;;;;;;;24.70;15.13;;;;;;;;;;6246885;28;20071;-71
2022/12/09 07:13:33;;;;;;;21.30;13.05;;;;;;;;;;6245834;28;20341;-71
2022/12/09 07:16:35;;;;;;;20.95;12.75;;;;;;;;;;6247042;28;20413;-71
2022/12/09 07:19:36;;;;;;;18.75;11.70;;;;;;;;;;6246968;28;20314;-71
2022/12/09 07:22:38;;;;;;;16.70;10.18;;;;;;;;;;6245395;28;20116;-71
2022/12/09 07:25:41;;;;;;;15.30;9.13;;;;;;;;;;6240945;28;20045;-72
2022/12/09 07:28:43;;;;;;;10.48;7.45;;;;;;;;;;6242788;28;20281;-70
2022/12/09 07:31:46;;;;;;;10.70;6.93;;;;;;;;;;6243024;28;20696;-71
2022/12/09 07:34:47;;;;;;;12.55;7.35;;;;;;;;;;6247452;28;20080;-72
2022/12/09 07:37:49;;;;;;;10.90;6.70;;;;;;;;;;6246447;28;20721;-70
2022/12/09 07:40:52;;;;;;;13.40;8.30;;;;;;;;;;6237144;28;20073;-70
2022/12/09 07:43:54;;;;;;;13.50;8.15;;;;;;;;;;6243005;28;20057;-69
2022/12/09 07:46:57;;;;;;;14.55;8.95;;;;;;;;;;6245117;28;20241;-69
2022/12/09 07:49:58;;;;;;;14.50;9.70;;;;;;;;;;6246224;28;20103;-69
2022/12/09 07:53:00;;;;;;;12.48;7.30;;;;;;;;;;6242896;28;20355;-67
2022/12/09 07:56:04;;;;;;;11.98;7.85;;;;;;;;;;6244741;28;20103;-69
2022/12/09 07:59:06;;;;;;;11.88;7.32;;;;;;;;;;6246419;28;20052;-69
2022/12/09 08:02:09;;;;;;;14.02;8.20;;;;;;;;;;6244483;28;20065;-68
2022/12/09 08:05:11;;;;;;;10.63;6.80;;;;;;;;;;6240305;28;20057;-69
2022/12/09 08:08:12;;;;;;;10.07;6.80;;;;;;;;;;6242061;28;20053;-68
2022/12/09 08:11:18;;;;;;;10.85;7.63;;;;;;;;;;6247060;28;20045;-69
2022/12/09 08:14:19;;;;;;;13.82;7.57;;;;;;;;;;6244706;28;20087;-68
2022/12/09 08:17:21;;;;;;;14.02;8.07;;;;;;;;;;6243868;28;20395;-70
2022/12/09 08:20:23;;;;;;;14.05;8.75;;;;;;;;;;6211479;28;20077;-69
2022/12/09 08:23:24;;;;;;;16.77;9.88;;;;;;;;;;6244137;28;20766;-69
2022/12/09 08:26:29;;;;;;;15.02;9.45;;;;;;;;;;6245761;28;20054;-69
2022/12/09 08:29:31;;;;;;;13.98;9.55;;;;;;;;;;6243181;28;20049;-71
2022/12/09 08:32:32;;;;;;;16.17;10.40;;;;;;;;;;6244207;28;20092;-69
2022/12/09 08:35:34;;;;;;;16.20;9.30;;;;;;;;;;6246043;28;20053;-71
2022/12/09 08:38:36;;;;;;;13.35;8.90;;;;;;;;;;6245605;28;20344;-71
2022/12/09 08:41:39;;;;;;;20.52;9.48;;;;;;;;;;6247453;28;20057;-71
2022/12/09 08:44:41;;;;;;;16.42;10.90;;;;;;;;;;6244157;28;20284;-71
2022/12/09 08:47:42;;;;;;;17.48;10.90;;;;;;;;;;6244876;28;20183;-69
2022/12/09 08:50:44;;;;;;;17.75;11.57;;;;;;;;;;6245978;28;20132;-69
2022/12/09 08:53:46;;;;;;;22.35;12.38;;;;;;;;;;6244957;28;20694;-70
2022/12/09 08:56:50;;;;;;;18.40;12.13;;;;;;;;;;6251712;28;20127;-70
2022/12/09 08:59:52;;;;;;;21.33;12.00;;;;;;;;;;6252395;28;21802;-70
2022/12/09 09:02:54;;;;;;;20.42;12.02;;;;;;;;;;6249263;28;20061;-69
2022/12/09 09:06:00;;;;;;;21.42;13.43;;;;;;;;;;6252163;28;20052;-72
2022/12/09 09:09:02;;;;;;;18.92;12.00;;;;;;;;;;6250637;28;20045;-69
2022/12/09 09:12:06;;;;;;;19.40;11.82;;;;;;;;;;6250580;28;20336;-71
2022/12/09 09:15:08;;;;;;;19.13;12.60;;;;;;;;;;6253515;28;20068;-69
2022/12/09 09:18:10;;;;;;;17.83;11.75;;;;;;;;;;6250907;28;20057;-68
2022/12/09 09:21:14;;;;;;;19.30;11.98;;;;;;;;;;6250287;28;20060;-69
2022/12/09 09:24:17;;;;;;;16.95;11.43;;;;;;;;;;6248801;28;20053;-72
2022/12/09 09:27:21;;;;;;;18.33;11.90;;;;;;;;;;6253308;28;20049;-71
2022/12/09 09:30:22;;;;;;;18.90;11.98;;;;;;;;;;6254278;28;20053;-71
2022/12/09 09:33:24;;;;;;;18.48;12.05;;;;;;;;;;6251684;28;20057;-70
2022/12/09 09:36:26;;;;;;;18.92;12.32;;;;;;;;;;6254834;28;20056;-71
2022/12/09 09:39:27;;;;;;;22.23;12.88;;;;;;;;;;6248036;28;20050;-71
2022/12/09 09:42:35;;;;;;;21.38;13.95;;;;;;;;;;6252078;28;20048;-70
2022/12/09 09:45:37;;;;;;;21.98;14.13;;;;;;;;;;6252024;28;20053;-71
2022/12/09 09:48:38;;;;;;;22.10;14.45;;;;;;;;;;6248988;28;20116;-71
2022/12/09 09:51:40;;;;;;;20.50;13.50;;;;;;;;;;6247177;28;20056;-71
2022/12/09 09:54:42;;;;;;;21.63;14.25;;;;;;;;;;6251969;28;20053;-69
2022/12/09 09:57:47;;;;;;;23.10;15.68;;;;;;;;;;6248564;28;20053;-70
2022/12/09 10:00:55;;;;;;;23.58;14.90;;;;;;;;;;6251139;28;20099;-68
2022/12/09 10:04:01;;;;;;;23.85;15.35;;;;;;;;;;6250295;28;20108;-70
2022/12/09 10:07:09;;;;;;;24.42;15.23;;;;;;;;;;6244318;28;20083;-69
2022/12/09 10:10:25;;;;;;;23.83;15.20;;;;;;;;;;6246776;28;20049;-70
2022/12/09 10:13:39;;;;;;;24.58;16.52;;;;;;;;;;6247427;28;20052;-70
2022/12/09 10:16:43;;;;;;;24.53;16.37;;;;;;;;;;6249252;28;20087;-71
2022/12/09 10:19:47;;;;;;;25.67;16.17;;;;;;;;;;6243975;28;20310;-68
2022/12/09 10:22:51;;;;;;;25.38;15.20;;;;;;;;;;6248180;28;20092;-71
2022/12/09 10:25:55;;;;;;;24.60;16.40;;;;;;;;;;6244479;28;20053;-70
2022/12/09 10:29:04;;;;;;;24.50;15.38;;;;;;;;;;6244692;28;20052;-71
2022/12/09 10:32:08;;;;;;;23.40;14.88;;;;;;;;;;6248014;28;20123;-70
2022/12/09 10:35:13;;;;;;;24.60;14.98;;;;;;;;;;6244413;28;20069;-70
2022/12/09 10:38:17;;;;;;;22.70;14.52;;;;;;;;;;6245853;28;20105;-70
2022/12/09 10:44:51;;;;;;;19.63;13.57;;;;;;;;;;6246502;28;20057;-70
2022/12/09 10:47:52;;;;;;;23.75;14.10;;;;;;;;;;6246509;28;20068;-70
2022/12/09 10:50:56;;;;;;;18.10;12.82;;;;;;;;;;6247390;28;20348;-70
2022/12/09 10:54:00;;;;;;;16.58;11.88;;;;;;;;;;6242728;28;20069;-70
2022/12/09 10:57:08;;;;;;;17.83;11.45;;;;;;;;;;6243643;28;20280;-71
2022/12/09 11:00:22;;;;;;;14.75;10.27;;;;;;;;;;6247253;28;20049;-70
2022/12/09 11:03:26;;;;;;;17.48;10.85;;;;;;;;;;6245131;28;20057;-71
2022/12/09 11:06:29;;;;;;;16.30;11.38;;;;;;;;;;6245970;28;20059;-72
2022/12/09 11:09:34;;;;;;;17.38;11.98;;;;;;;;;;6245942;28;20100;-72
2022/12/09 11:12:38;;;;;;;17.00;11.65;;;;;;;;;;6245592;28;20053;-72
2022/12/09 11:15:43;;;;;;;19.35;12.50;;;;;;;;;;6248602;28;20288;-72
2022/12/09 11:18:47;;;;;;;20.10;13.10;;;;;;;;;;6245572;28;20041;-72
2022/12/09 11:21:48;;;;;;;17.52;11.15;;;;;;;;;;6243751;28;20049;-72
2022/12/09 11:24:51;;;;;;;16.42;11.52;;;;;;;;;;6243788;28;20068;-70
2022/12/09 11:27:55;;;;;;;16.52;12.20;;;;;;;;;;6246261;28;20049;-70
2022/12/09 11:30:59;;;;;;;18.30;11.80;;;;;;;;;;6242136;28;20226;-73
2022/12/09 11:34:03;;;;;;;15.88;11.43;;;;;;;;;;6245543;28;20053;-71
2022/12/09 11:37:05;;;;;;;15.98;11.35;;;;;;;;;;6245304;28;20133;-71
2022/12/09 11:40:15;;;;;;;13.73;10.45;;;;;;;;;;6244411;28;20065;-70
2022/12/09 11:43:17;;;;;;;13.40;9.98;;;;;;;;;;6244181;28;20057;-70
2022/12/09 11:46:24;;;;;;;14.63;9.77;;;;;;;;;;6240066;28;20633;-71
2022/12/09 11:49:26;;;;;;;15.20;10.10;;;;;;;;;;6246540;28;20198;-72
2022/12/09 11:52:29;;;;;;;12.50;9.45;;;;;;;;;;6245174;28;20050;-72
2022/12/09 11:55:32;;;;;;;13.52;9.57;;;;;;;;;;6245575;28;20061;-72
2022/12/09 11:58:39;;;;;;;16.08;10.35;;;;;;;;;;6241865;28;20186;-73
2022/12/09 12:01:47;;;;;;;14.45;9.48;;;;;;;;;;6242326;28;20057;-71
2022/12/09 12:04:53;;;;;;;14.93;9.90;;;;;;;;;;6241944;28;20050;-72
2022/12/09 12:08:05;;;;;;;14.25;10.35;;;;;;;;;;6243251;28;20057;-70
2022/12/09 12:11:08;;;;;;;13.60;10.13;;;;;;;;;;6244929;28;20041;-69
2022/12/09 12:14:15;;;;;;;18.05;12.00;;;;;;;;;;6242838;28;20264;-70
2022/12/09 12:17:37;;;;;;;15.00;11.00;;;;;;;;;;6245283;28;20073;-71
2022/12/09 12:20:47;;;;;;;16.70;11.18;;;;;;;;;;6243354;28;20057;-73
2022/12/09 12:24:09;;;;;;;14.85;11.48;;;;;;;;;;6244953;28;20344;-72
2022/12/09 12:27:20;;;;;;;15.73;10.18;;;;;;;;;;6246828;28;20053;-71
2022/12/09 12:30:23;;;;;;;15.25;11.20;;;;;;;;;;6241706;28;20049;-70
2022/12/09 12:33:41;;;;;;;15.73;11.20;;;;;;;;;;6241636;28;20052;-70
2022/12/09 12:36:49;;;;;;;13.73;10.15;;;;;;;;;;6242648;28;20045;-71
2022/12/09 12:39:58;;;;;;;17.60;10.43;;;;;;;;;;6234265;28;20221;-72
2022/12/09 12:46:32;;;;;;;15.55;10.07;;;;;;;;;;6242684;28;20061;-72
2022/12/09 12:49:51;;;;;;;14.23;10.65;;;;;;;;;;6244093;28;20053;-72
2022/12/09 12:52:58;;;;;;;18.08;10.98;;;;;;;;;;6245734;28;20087;-73
2022/12/09 12:56:03;;;;;;;16.00;11.27;;;;;;;;;;6242804;28;20192;-70
2022/12/09 12:59:10;;;;;;;15.20;10.73;;;;;;;;;;6243238;28;20057;-73
2022/12/09 13:02:22;;;;;;;15.85;11.15;;;;;;;;;;6246458;28;20068;-71
2022/12/09 13:05:27;;;;;;;13.77;10.90;;;;;;;;;;6247666;28;20046;-72
2022/12/09 13:08:33;;;;;;;15.23;10.55;;;;;;;;;;6246844;28;20276;-75
2022/12/09 13:11:49;;;;;;;19.90;12.27;;;;;;;;;;6244978;28;20049;-77
2022/12/09 13:14:52;;;;;;;13.10;10.25;;;;;;;;;;6243194;28;20052;-72
2022/12/09 13:17:54;;;;;;;12.60;9.45;;;;;;;;;;6243848;28;20228;-71
2022/12/09 13:20:59;;;;;;;14.93;9.50;;;;;;;;;;6240799;28;20056;-72
2022/12/09 13:24:08;;;;;;;13.10;9.27;;;;;;;;;;6246120;28;20080;-72
2022/12/09 13:27:15;;;;;;;11.82;9.25;;;;;;;;;;6246232;28;20057;-71
2022/12/09 13:30:20;;;;;;;13.98;9.65;;;;;;;;;;6240567;28;20057;-71
2022/12/09 13:33:36;;;;;;;14.32;9.85;;;;;;;;;;6241794;28;20232;-74
2022/12/09 13:36:41;;;;;;;13.15;9.27;;;;;;;;;;6239408;28;20056;-74
2022/12/09 13:39:56;;;;;;;12.90;9.40;;;;;;;;;;6243274;28;20061;-73
2022/12/09 13:43:12;;;;;;;17.27;10.38;;;;;;;;;;6251650;28;20112;-74
2022/12/09 13:46:21;;;;;;;16.63;10.07;;;;;;;;;;6248443;28;20060;-75
2022/12/09 13:49:24;;;;;;;14.30;10.48;;;;;;;;;;6252071;28;20090;-74
2022/12/09 13:52:49;;;;;;;16.17;10.05;;;;;;;;;;6249068;28;20049;-74
2022/12/09 13:55:53;;;;;;;14.77;9.27;;;;;;;;;;6248041;28;20181;-74
2022/12/09 13:59:30;;;;;;;17.85;10.30;;;;;;;;;;6248532;28;20057;-74
2022/12/09 14:02:38;;;;;;;14.10;9.77;;;;;;;;;;6244905;28;20057;-73
2022/12/09 14:05:40;;;;;;;16.15;9.13;;;;;;;;;;6248924;28;20053;-72
2022/12/09 14:08:53;;;;;;;13.88;9.88;;;;;;;;;;6244246;28;20045;-72
2022/12/09 14:11:55;;;;;;;13.32;9.05;;;;;;;;;;6247857;28;20402;-72
2022/12/09 14:14:57;;;;;;;13.68;9.40;;;;;;;;;;6246218;28;20096;-70
2022/12/09 14:18:02;;;;;;;13.32;9.20;;;;;;;;;;6250278;28;20073;-73
2022/12/09 14:21:26;;;;;;;13.15;9.98;;;;;;;;;;6246440;28;20060;-73
2022/12/09 14:24:34;;;;;;;17.60;10.85;;;;;;;;;;6245885;28;20050;-72
2022/12/09 14:27:35;;;;;;;18.35;11.25;;;;;;;;;;6250386;28;20070;-72
2022/12/09 14:30:48;;;;;;;14.57;10.20;;;;;;;;;;6245281;28;20053;-72
2022/12/09 14:33:50;;;;;;;14.85;10.02;;;;;;;;;;6247857;28;20068;-72
2022/12/09 14:36:56;;;;;;;22.17;11.18;;;;;;;;;;6246135;28;20060;-73
2022/12/09 14:40:16;;;;;;;17.13;11.25;;;;;;;;;;6244560;28;20225;-71
2022/12/09 14:43:37;;;;;;;15.88;11.20;;;;;;;;;;6247596;28;20107;-72
2022/12/09 14:46:40;;;;;;;17.75;12.60;;;;;;;;;;6250273;28;20096;-72
2022/12/09 14:49:42;;;;;;;19.83;13.37;;;;;;;;;;6246775;28;20337;-72
2022/12/09 14:52:52;;;;;;;22.73;13.73;;;;;;;;;;6247150;28;20349;-72
2022/12/09 14:55:55;;;;;;;22.63;12.27;;;;;;;;;;6249457;28;20068;-72
2022/12/09 14:59:00;;;;;;;20.00;13.02;;;;;;;;;;6246399;28;20261;-72
2022/12/09 15:02:14;;;;;;;19.17;11.73;;;;;;;;;;6246202;28;20246;-73
2022/12/09 15:05:17;;;;;;;20.33;13.25;;;;;;;;;;6245063;28;20053;-71
2022/12/09 15:08:27;;;;;;;17.83;12.30;;;;;;;;;;6246053;28;20664;-72
2022/12/09 15:11:33;;;;;;;21.83;13.35;;;;;;;;;;6245513;28;20228;-72
2022/12/09 15:14:36;;;;;;;21.25;13.23;;;;;;;;;;6247032;28;20045;-72
2022/12/09 15:17:42;;;;;;;24.08;13.27;;;;;;;;;;6246977;28;20107;-73
2022/12/09 15:20:49;;;;;;;21.77;14.18;;;;;;;;;;6245145;28;20197;-72
2022/12/09 15:23:50;;;;;;;22.42;14.00;;;;;;;;;;6245125;28;20210;-72
2022/12/09 15:26:58;;;;;;;21.17;13.32;;;;;;;;;;6243644;28;20049;-71
2022/12/09 15:30:00;;;;;;;20.98;13.75;;;;;;;;;;6242192;28;20101;-72
2022/12/09 15:33:02;;;;;;;22.05;13.57;;;;;;;;;;6243283;28;20062;-73
2022/12/09 15:36:07;;;;;;;23.85;13.57;;;;;;;;;;6243415;28;20428;-72
2022/12/09 15:39:09;;;;;;;;;;;;;;;;;;6241151;28;20053;-72
2022/12/09 15:42:16;;;;;;;19.15;13.02;;;;;;;;;;6241895;28;19962;-70
2022/12/09 15:45:21;;;;;;;19.00;12.88;;;;;;;;;;6244424;28;20333;-73
2022/12/09 15:48:26;;;;;;;24.20;13.50;;;;;;;;;;6230814;28;20042;-72
2022/12/09 15:51:29;;;;;;;20.65;12.27;;;;;;;;;;6246662;28;20045;-73
2022/12/09 15:54:33;;;;;;;20.48;13.13;;;;;;;;;;6245083;28;20057;-72
2022/12/09 15:57:36;;;;;;;18.80;12.48;;;;;;;;;;6243354;28;20046;-73
2022/12/09 16:00:39;;;;;;;20.58;13.05;;;;;;;;;;6246648;28;21587;-72
2022/12/09 16:03:41;;;;;;;20.20;12.77;;;;;;;;;;6242786;28;20345;-73
2022/12/09 16:06:43;;;;;;;19.38;12.88;;;;;;;;;;6243076;28;20096;-73
2022/12/09 16:10:01;;;;;;;19.55;12.38;;;;;;;;;;6245337;28;20057;-73
2022/12/09 16:13:11;;;;;;;22.67;12.38;;;;;;;;;;6242575;28;20050;-72
2022/12/09 16:16:24;;;;;;;18.20;12.57;;;;;;;;;;6246680;28;20053;-73
2022/12/09 16:19:37;;;;;;;18.92;12.27;;;;;;;;;;6244885;28;20053;-73
2022/12/09 16:22:41;;;;;;;20.92;12.60;;;;;;;;;;6242702;28;20045;-71
2022/12/09 16:25:45;;;;;;;19.92;12.90;;;;;;;;;;6240909;28;20103;-73
2022/12/09 16:28:55;;;;;;;22.25;14.05;;;;;;;;;;6243544;28;20061;-71
2022/12/09 16:32:18;;;;;;;22.50;14.23;;;;;;;;;;6243935;28;20068;-72
2022/12/09 16:35:22;;;;;;;24.20;15.32;;;;;;;;;;6241292;28;20053;-70
2022/12/09 16:38:24;;;;;;;25.35;17.33;;;;;;;;;;6242088;28;20041;-73
2022/12/09 16:41:55;;;;;;;29.35;17.85;;;;;;;;;;6239777;28;20061;-72
2022/12/09 16:45:23;;;;;;;31.67;17.58;;;;;;;;;;6231278;28;20786;-71
2022/12/09 16:48:28;;;;;;;28.77;17.38;;;;;;;;;;6240528;28;20045;-73
2022/12/09 16:51:29;;;;;;;33.72;18.90;;;;;;;;;;6246816;28;20059;-72
2022/12/09 16:54:31;;;;;;;29.50;17.20;;;;;;;;;;6243353;28;20108;-71
2022/12/09 16:57:34;;;;;;;29.95;16.63;;;;;;;;;;6245219;28;20058;-71
2022/12/09 17:00:37;;;;;;;26.25;16.35;;;;;;;;;;6243207;28;20278;-72
2022/12/09 17:03:41;;;;;;;31.02;18.23;;;;;;;;;;6242662;28;20057;-71
2022/12/09 17:06:42;;;;;;;29.00;17.02;;;;;;;;;;6245694;28;20052;-71
2022/12/09 17:09:44;;;;;;;30.10;17.20;;;;;;;;;;6245837;28;20046;-71
2022/12/09 17:12:46;;;;;;;24.88;16.02;;;;;;;;;;6238769;28;20112;-73
2022/12/09 17:15:50;;;;;;;25.85;16.02;;;;;;;;;;6243337;28;20103;-74
2022/12/09 17:18:52;;;;;;;30.00;16.08;;;;;;;;;;6246963;28;20061;-74
2022/12/09 17:21:54;;;;;;;26.75;15.90;;;;;;;;;;6246103;28;20061;-71
2022/12/09 17:24:56;;;;;;;25.65;16.02;;;;;;;;;;6245871;28;20069;-73
2022/12/09 17:27:57;;;;;;;25.85;16.25;;;;;;;;;;6246708;28;20237;-73
2022/12/09 17:31:01;;;;;;;28.45;16.63;;;;;;;;;;6248230;28;20053;-73
2022/12/09 17:34:03;;;;;;;28.55;15.82;;;;;;;;;;6247748;28;20089;-74
2022/12/09 17:37:06;;;;;;;26.42;15.25;;;;;;;;;;6250922;28;20062;-72
2022/12/09 17:40:09;;;;;;;25.75;15.13;;;;;;;;;;6244423;28;20053;-72
2022/12/09 17:43:12;;;;;;;26.83;16.17;;;;;;;;;;6250980;28;20053;-73
2022/12/09 17:46:16;;;;;;;26.50;15.27;;;;;;;;;;6252930;28;20068;-73
2022/12/09 17:49:18;;;;;;;26.53;16.87;;;;;;;;;;6244960;28;20329;-71
2022/12/09 17:52:19;;;;;;;29.00;16.75;;;;;;;;;;6249451;28;20104;-72
2022/12/09 17:55:21;;;;;;;26.05;16.05;;;;;;;;;;6248476;28;20257;-74
2022/12/09 17:58:23;;;;;;;24.05;15.07;;;;;;;;;;6250381;28;20050;-75
2022/12/09 18:01:26;;;;;;;23.25;14.95;;;;;;;;;;6250465;28;20050;-75